sensor_id;sensor_type;location;lat;lon;timestamp;temperature;humidity
12746;DHT22;6437;53.686;10.030;2022-10-16T00:00:29;14.60;99.90
12746;DHT22;6437;53.686;10.030;2022-10-16T00:03:31;14.60;99.90
12746;DHT22;6437;53.686;10.030;2022-10-16T00:06:32;14.50;99.90
12746;DHT22;6437;53.686;10.030;2022-10-16T00:09:34;14.60;99.90
12746;DHT22;6437;53.686;10.030;2022-10-16T00:12:36;14.50;99.90
12746;DHT22;6437;53.686;10.030;2022-10-16T00:15:39;14.50;99.90
12746;DHT22;6437;53.686;10.030;2022-10-16T00:18:43;14.50;99.90
12746;DHT22;6437;53.686;10.030;2022-10-16T00:21:45;14.50;99.90
12746;DHT22;6437;53.686;10.030;2022-10-16T00:24:46;14.50;99.90
12746;DHT22;6437;53.686;10.030;2022-10-16T00:27:48;14.50;99.90
12746;DHT22;6437;53.686;10.030;2022-10-16T00:30:51;14.50;99.90
12746;DHT22;6437;53.686;10.030;2022-10-16T00:33:52;14.50;99.90
12746;DHT22;6437;53.686;10.030;2022-10-16T00:36:54;14.40;99.90
12746;DHT22;6437;53.686;10.030;2022-10-16T00:39:56;14.40;99.90
12746;DHT22;6437;53.686;10.030;2022-10-16T00:42:57;14.40;99.90
12746;DHT22;6437;53.686;10.030;2022-10-16T00:46:01;14.40;99.90
12746;DHT22;6437;53.686;10.030;2022-10-16T00:49:04;14.50;99.90
12746;DHT22;6437;53.686;10.030;2022-10-16T00:52:07;14.50;99.90
12746;DHT22;6437;53.686;10.030;2022-10-16T00:55:09;14.50;99.90
12746;DHT22;6437;53.686;10.030;2022-10-16T00:58:10;14.50;99.90
12746;DHT22;6437;53.686;10.030;2022-10-16T01:01:13;14.40;99.90
12746;DHT22;6437;53.686;10.030;2022-10-16T01:04:15;14.50;99.90
12746;DHT22;6437;53.686;10.030;2022-10-16T01:07:20;14.50;99.90
12746;DHT22;6437;53.686;10.030;2022-10-16T01:10:27;14.50;99.90
12746;DHT22;6437;53.686;10.030;2022-10-16T01:13:33;14.50;99.90
12746;DHT22;6437;53.686;10.030;2022-10-16T01:16:40;14.40;99.90
12746;DHT22;6437;53.686;10.030;2022-10-16T01:19:50;14.50;99.90
12746;DHT22;6437;53.686;10.030;2022-10-16T01:23:04;14.40;99.90
12746;DHT22;6437;53.686;10.030;2022-10-16T01:29:28;14.50;99.90
12746;DHT22;6437;53.686;10.030;2022-10-16T01:32:31;14.40;99.90
12746;DHT22;6437;53.686;10.030;2022-10-16T01:35:35;14.40;99.90
12746;DHT22;6437;53.686;10.030;2022-10-16T01:38:37;14.30;99.90
12746;DHT22;6437;53.686;10.030;2022-10-16T01:41:41;14.30;99.90
12746;DHT22;6437;53.686;10.030;2022-10-16T01:44:45;14.30;99.90
12746;DHT22;6437;53.686;10.030;2022-10-16T01:47:48;14.30;99.90
12746;DHT22;6437;53.686;10.030;2022-10-16T01:50:52;14.30;99.90
12746;DHT22;6437;53.686;10.030;2022-10-16T01:53:55;14.20;99.90
12746;DHT22;6437;53.686;10.030;2022-10-16T01:56:58;14.30;99.90
12746;DHT22;6437;53.686;10.030;2022-10-16T02:00:03;14.10;99.90
12746;DHT22;6437;53.686;10.030;2022-10-16T02:03:05;14.20;99.90
12746;DHT22;6437;53.686;10.030;2022-10-16T02:06:07;14.20;99.90
12746;DHT22;6437;53.686;10.030;2022-10-16T02:09:09;14.20;99.90
12746;DHT22;6437;53.686;10.030;2022-10-16T02:12:11;14.20;99.90
12746;DHT22;6437;53.686;10.030;2022-10-16T02:15:16;14.10;99.90
12746;DHT22;6437;53.686;10.030;2022-10-16T02:18:18;14.10;99.90
12746;DHT22;6437;53.686;10.030;2022-10-16T02:21:22;14.10;99.90
12746;DHT22;6437;53.686;10.030;2022-10-16T02:24:26;14.10;99.90
12746;DHT22;6437;53.686;10.030;2022-10-16T02:27:31;14.00;99.90
12746;DHT22;6437;53.686;10.030;2022-10-16T02:30:36;14.00;99.90
12746;DHT22;6437;53.686;10.030;2022-10-16T02:33:40;14.00;99.90
12746;DHT22;6437;53.686;10.030;2022-10-16T02:36:43;14.10;99.90
12746;DHT22;6437;53.686;10.030;2022-10-16T02:39:45;14.00;99.90
12746;DHT22;6437;53.686;10.030;2022-10-16T02:42:50;14.00;99.90
12746;DHT22;6437;53.686;10.030;2022-10-16T02:45:53;14.00;99.90
12746;DHT22;6437;53.686;10.030;2022-10-16T02:48:54;13.90;99.90
12746;DHT22;6437;53.686;10.030;2022-10-16T02:51:56;13.90;99.90
12746;DHT22;6437;53.686;10.030;2022-10-16T02:54:58;13.90;99.90
12746;DHT22;6437;53.686;10.030;2022-10-16T02:57:59;13.90;99.90
12746;DHT22;6437;53.686;10.030;2022-10-16T03:01:02;13.90;99.90
12746;DHT22;6437;53.686;10.030;2022-10-16T03:04:04;13.80;99.90
12746;DHT22;6437;53.686;10.030;2022-10-16T03:07:05;13.80;99.90
12746;DHT22;6437;53.686;10.030;2022-10-16T03:10:08;13.80;99.90
12746;DHT22;6437;53.686;10.030;2022-10-16T03:13:09;13.80;99.90
12746;DHT22;6437;53.686;10.030;2022-10-16T03:16:12;13.80;99.90
12746;DHT22;6437;53.686;10.030;2022-10-16T03:19:15;13.70;99.90
12746;DHT22;6437;53.686;10.030;2022-10-16T03:22:17;13.70;99.90
12746;DHT22;6437;53.686;10.030;2022-10-16T03:25:18;13.60;99.90
12746;DHT22;6437;53.686;10.030;2022-10-16T03:28:20;13.70;99.90
12746;DHT22;6437;53.686;10.030;2022-10-16T03:31:23;13.60;99.90
12746;DHT22;6437;53.686;10.030;2022-10-16T03:34:24;13.60;99.90
12746;DHT22;6437;53.686;10.030;2022-10-16T03:37:26;13.60;99.90
12746;DHT22;6437;53.686;10.030;2022-10-16T03:40:28;13.50;99.90
12746;DHT22;6437;53.686;10.030;2022-10-16T03:43:31;13.20;99.90
12746;DHT22;6437;53.686;10.030;2022-10-16T03:46:34;13.50;99.90
12746;DHT22;6437;53.686;10.030;2022-10-16T03:49:36;13.50;99.90
12746;DHT22;6437;53.686;10.030;2022-10-16T03:52:37;13.50;99.90
12746;DHT22;6437;53.686;10.030;2022-10-16T03:55:40;13.50;99.90
12746;DHT22;6437;53.686;10.030;2022-10-16T03:58:42;13.50;99.90
12746;DHT22;6437;53.686;10.030;2022-10-16T04:01:45;13.50;99.90
12746;DHT22;6437;53.686;10.030;2022-10-16T04:04:46;13.50;99.90
12746;DHT22;6437;53.686;10.030;2022-10-16T04:07:48;13.50;99.90
12746;DHT22;6437;53.686;10.030;2022-10-16T04:10:49;13.50;99.90
12746;DHT22;6437;53.686;10.030;2022-10-16T04:13:51;13.50;99.90
12746;DHT22;6437;53.686;10.030;2022-10-16T04:16:54;13.50;99.90
12746;DHT22;6437;53.686;10.030;2022-10-16T04:19:56;13.50;99.90
12746;DHT22;6437;53.686;10.030;2022-10-16T04:22:57;13.40;99.90
12746;DHT22;6437;53.686;10.030;2022-10-16T04:25:59;13.40;99.90
12746;DHT22;6437;53.686;10.030;2022-10-16T04:29:01;13.40;99.90
12746;DHT22;6437;53.686;10.030;2022-10-16T04:32:04;13.40;99.90
12746;DHT22;6437;53.686;10.030;2022-10-16T04:35:06;13.40;99.90
12746;DHT22;6437;53.686;10.030;2022-10-16T04:38:07;13.40;99.90
12746;DHT22;6437;53.686;10.030;2022-10-16T04:41:10;13.40;99.90
12746;DHT22;6437;53.686;10.030;2022-10-16T04:44:11;13.40;99.90
12746;DHT22;6437;53.686;10.030;2022-10-16T04:47:14;13.30;99.90
12746;DHT22;6437;53.686;10.030;2022-10-16T04:50:16;13.40;99.90
12746;DHT22;6437;53.686;10.030;2022-10-16T04:53:18;13.40;99.90
12746;DHT22;6437;53.686;10.030;2022-10-16T04:56:19;13.40;99.90
12746;DHT22;6437;53.686;10.030;2022-10-16T04:59:22;13.40;99.90
12746;DHT22;6437;53.686;10.030;2022-10-16T05:02:25;13.40;99.90
12746;DHT22;6437;53.686;10.030;2022-10-16T05:05:26;13.40;99.90
12746;DHT22;6437;53.686;10.030;2022-10-16T05:08:28;13.30;99.90
12746;DHT22;6437;53.686;10.030;2022-10-16T05:11:29;13.30;99.90
12746;DHT22;6437;53.686;10.030;2022-10-16T05:14:31;13.30;99.90
12746;DHT22;6437;53.686;10.030;2022-10-16T05:17:34;13.30;99.90
12746;DHT22;6437;53.686;10.030;2022-10-16T05:20:35;13.30;99.90
12746;DHT22;6437;53.686;10.030;2022-10-16T05:23:37;13.40;99.90
12746;DHT22;6437;53.686;10.030;2022-10-16T05:26:39;13.30;99.90
12746;DHT22;6437;53.686;10.030;2022-10-16T05:29:40;13.30;99.90
12746;DHT22;6437;53.686;10.030;2022-10-16T05:32:46;13.40;99.90
12746;DHT22;6437;53.686;10.030;2022-10-16T05:35:49;13.30;99.90
12746;DHT22;6437;53.686;10.030;2022-10-16T05:38:51;13.40;99.90
12746;DHT22;6437;53.686;10.030;2022-10-16T05:41:52;13.40;99.90
12746;DHT22;6437;53.686;10.030;2022-10-16T05:44:54;13.40;99.90
12746;DHT22;6437;53.686;10.030;2022-10-16T05:47:57;13.40;99.90
12746;DHT22;6437;53.686;10.030;2022-10-16T05:50:58;13.40;99.90
12746;DHT22;6437;53.686;10.030;2022-10-16T05:54:00;13.40;99.90
12746;DHT22;6437;53.686;10.030;2022-10-16T05:57:02;13.40;99.90
12746;DHT22;6437;53.686;10.030;2022-10-16T06:00:06;13.40;99.90
12746;DHT22;6437;53.686;10.030;2022-10-16T06:03:09;13.40;99.90
12746;DHT22;6437;53.686;10.030;2022-10-16T06:06:11;13.40;99.90
12746;DHT22;6437;53.686;10.030;2022-10-16T06:09:13;13.50;99.90
12746;DHT22;6437;53.686;10.030;2022-10-16T06:12:15;13.50;99.90
12746;DHT22;6437;53.686;10.030;2022-10-16T06:15:16;13.50;99.90
12746;DHT22;6437;53.686;10.030;2022-10-16T06:18:19;13.50;99.90
12746;DHT22;6437;53.686;10.030;2022-10-16T06:21:21;13.50;99.90
12746;DHT22;6437;53.686;10.030;2022-10-16T06:24:25;13.50;99.90
12746;DHT22;6437;53.686;10.030;2022-10-16T06:27:26;13.50;99.90
12746;DHT22;6437;53.686;10.030;2022-10-16T06:30:28;13.50;99.90
12746;DHT22;6437;53.686;10.030;2022-10-16T06:33:31;13.60;99.90
12746;DHT22;6437;53.686;10.030;2022-10-16T06:36:32;13.60;99.90
12746;DHT22;6437;53.686;10.030;2022-10-16T06:39:34;13.60;99.90
12746;DHT22;6437;53.686;10.030;2022-10-16T06:42:36;13.60;99.90
12746;DHT22;6437;53.686;10.030;2022-10-16T06:45:37;13.60;99.90
12746;DHT22;6437;53.686;10.030;2022-10-16T06:48:41;13.60;99.90
12746;DHT22;6437;53.686;10.030;2022-10-16T06:51:42;13.60;99.90
12746;DHT22;6437;53.686;10.030;2022-10-16T06:54:44;13.70;99.90
12746;DHT22;6437;53.686;10.030;2022-10-16T06:57:46;13.80;99.90
12746;DHT22;6437;53.686;10.030;2022-10-16T07:00:48;13.80;99.90
12746;DHT22;6437;53.686;10.030;2022-10-16T07:03:51;13.80;99.90
12746;DHT22;6437;53.686;10.030;2022-10-16T07:06:53;13.80;99.90
12746;DHT22;6437;53.686;10.030;2022-10-16T07:09:54;13.90;99.90
12746;DHT22;6437;53.686;10.030;2022-10-16T07:12:56;14.00;99.90
12746;DHT22;6437;53.686;10.030;2022-10-16T07:15:58;14.00;99.90
12746;DHT22;6437;53.686;10.030;2022-10-16T07:19:01;14.10;99.90
12746;DHT22;6437;53.686;10.030;2022-10-16T07:22:03;14.10;99.90
12746;DHT22;6437;53.686;10.030;2022-10-16T07:25:05;13.80;99.90
12746;DHT22;6437;53.686;10.030;2022-10-16T07:28:07;14.20;99.90
12746;DHT22;6437;53.686;10.030;2022-10-16T07:31:11;14.20;99.90
12746;DHT22;6437;53.686;10.030;2022-10-16T07:34:15;14.20;99.90
12746;DHT22;6437;53.686;10.030;2022-10-16T07:37:17;14.30;99.90
12746;DHT22;6437;53.686;10.030;2022-10-16T07:40:18;14.30;99.90
12746;DHT22;6437;53.686;10.030;2022-10-16T07:43:20;14.40;99.90
12746;DHT22;6437;53.686;10.030;2022-10-16T07:46:22;14.40;99.90
12746;DHT22;6437;53.686;10.030;2022-10-16T07:49:25;14.40;99.90
12746;DHT22;6437;53.686;10.030;2022-10-16T07:52:26;14.40;99.90
12746;DHT22;6437;53.686;10.030;2022-10-16T07:55:28;14.50;99.90
12746;DHT22;6437;53.686;10.030;2022-10-16T07:58:30;14.50;99.90
12746;DHT22;6437;53.686;10.030;2022-10-16T08:01:31;14.60;99.90
12746;DHT22;6437;53.686;10.030;2022-10-16T08:04:34;14.60;99.90
12746;DHT22;6437;53.686;10.030;2022-10-16T08:07:36;14.60;99.90
12746;DHT22;6437;53.686;10.030;2022-10-16T08:10:37;14.70;99.90
12746;DHT22;6437;53.686;10.030;2022-10-16T08:13:39;14.60;99.90
12746;DHT22;6437;53.686;10.030;2022-10-16T08:16:41;14.60;99.90
12746;DHT22;6437;53.686;10.030;2022-10-16T08:19:45;14.70;99.90
12746;DHT22;6437;53.686;10.030;2022-10-16T08:22:47;14.70;99.90
12746;DHT22;6437;53.686;10.030;2022-10-16T08:25:49;14.80;99.90
12746;DHT22;6437;53.686;10.030;2022-10-16T08:28:50;14.80;99.90
12746;DHT22;6437;53.686;10.030;2022-10-16T08:31:52;14.80;99.90
12746;DHT22;6437;53.686;10.030;2022-10-16T08:34:55;14.80;99.90
12746;DHT22;6437;53.686;10.030;2022-10-16T08:37:56;14.80;99.90
12746;DHT22;6437;53.686;10.030;2022-10-16T08:41:01;14.80;99.90
12746;DHT22;6437;53.686;10.030;2022-10-16T08:44:15;14.90;99.90
12746;DHT22;6437;53.686;10.030;2022-10-16T08:47:23;14.90;99.90
12746;DHT22;6437;53.686;10.030;2022-10-16T08:50:29;14.90;99.90
12746;DHT22;6437;53.686;10.030;2022-10-16T08:53:31;14.90;99.90
12746;DHT22;6437;53.686;10.030;2022-10-16T08:56:37;15.00;99.90
12746;DHT22;6437;53.686;10.030;2022-10-16T08:59:39;15.00;99.90
12746;DHT22;6437;53.686;10.030;2022-10-16T09:02:43;15.00;99.90
12746;DHT22;6437;53.686;10.030;2022-10-16T09:05:54;15.10;99.90
12746;DHT22;6437;53.686;10.030;2022-10-16T09:09:02;15.10;99.90
12746;DHT22;6437;53.686;10.030;2022-10-16T09:12:09;15.10;99.90
12746;DHT22;6437;53.686;10.030;2022-10-16T09:15:17;15.10;99.90
12746;DHT22;6437;53.686;10.030;2022-10-16T09:18:23;15.20;99.90
12746;DHT22;6437;53.686;10.030;2022-10-16T09:21:28;15.20;99.90
12746;DHT22;6437;53.686;10.030;2022-10-16T09:24:30;15.30;99.90
12746;DHT22;6437;53.686;10.030;2022-10-16T09:27:32;15.30;99.90
12746;DHT22;6437;53.686;10.030;2022-10-16T09:30:34;15.30;99.90
12746;DHT22;6437;53.686;10.030;2022-10-16T09:33:36;15.30;99.90
12746;DHT22;6437;53.686;10.030;2022-10-16T09:36:42;15.30;99.90
12746;DHT22;6437;53.686;10.030;2022-10-16T09:39:45;15.40;99.90
12746;DHT22;6437;53.686;10.030;2022-10-16T09:42:47;15.40;99.90
12746;DHT22;6437;53.686;10.030;2022-10-16T09:45:56;15.50;99.90
12746;DHT22;6437;53.686;10.030;2022-10-16T09:48:59;15.50;99.90
12746;DHT22;6437;53.686;10.030;2022-10-16T09:52:05;15.50;99.90
12746;DHT22;6437;53.686;10.030;2022-10-16T09:55:13;15.50;99.90
12746;DHT22;6437;53.686;10.030;2022-10-16T09:58:15;15.60;99.90
12746;DHT22;6437;53.686;10.030;2022-10-16T10:01:16;15.60;99.90
12746;DHT22;6437;53.686;10.030;2022-10-16T10:04:18;15.70;99.90
12746;DHT22;6437;53.686;10.030;2022-10-16T10:07:23;15.80;99.90
12746;DHT22;6437;53.686;10.030;2022-10-16T10:10:25;15.80;99.90
12746;DHT22;6437;53.686;10.030;2022-10-16T10:13:27;15.90;99.90
12746;DHT22;6437;53.686;10.030;2022-10-16T10:16:29;15.90;99.90
12746;DHT22;6437;53.686;10.030;2022-10-16T10:19:37;16.00;99.90
12746;DHT22;6437;53.686;10.030;2022-10-16T10:22:41;16.00;99.90
12746;DHT22;6437;53.686;10.030;2022-10-16T10:25:48;16.10;99.90
12746;DHT22;6437;53.686;10.030;2022-10-16T10:28:53;16.20;99.90
12746;DHT22;6437;53.686;10.030;2022-10-16T10:31:58;16.30;99.90
12746;DHT22;6437;53.686;10.030;2022-10-16T10:35:07;16.40;99.90
12746;DHT22;6437;53.686;10.030;2022-10-16T10:38:23;16.60;99.90
12746;DHT22;6437;53.686;10.030;2022-10-16T10:41:32;16.80;99.90
12746;DHT22;6437;53.686;10.030;2022-10-16T10:44:39;17.00;99.90
12746;DHT22;6437;53.686;10.030;2022-10-16T10:47:47;17.20;99.90
12746;DHT22;6437;53.686;10.030;2022-10-16T10:50:52;17.40;99.90
12746;DHT22;6437;53.686;10.030;2022-10-16T10:53:58;17.60;99.90
12746;DHT22;6437;53.686;10.030;2022-10-16T10:57:03;17.70;99.90
12746;DHT22;6437;53.686;10.030;2022-10-16T11:00:13;17.70;99.90
12746;DHT22;6437;53.686;10.030;2022-10-16T11:03:23;17.80;99.90
12746;DHT22;6437;53.686;10.030;2022-10-16T11:06:29;17.80;99.90
12746;DHT22;6437;53.686;10.030;2022-10-16T11:09:34;17.80;99.90
12746;DHT22;6437;53.686;10.030;2022-10-16T11:12:38;18.00;99.90
12746;DHT22;6437;53.686;10.030;2022-10-16T11:15:42;18.10;99.90
12746;DHT22;6437;53.686;10.030;2022-10-16T11:18:46;18.30;99.90
12746;DHT22;6437;53.686;10.030;2022-10-16T11:21:49;18.50;99.90
12746;DHT22;6437;53.686;10.030;2022-10-16T11:24:55;18.60;99.90
12746;DHT22;6437;53.686;10.030;2022-10-16T11:28:01;18.80;99.90
12746;DHT22;6437;53.686;10.030;2022-10-16T11:31:05;18.90;99.90
12746;DHT22;6437;53.686;10.030;2022-10-16T11:34:09;19.00;99.90
12746;DHT22;6437;53.686;10.030;2022-10-16T11:37:18;19.30;99.90
12746;DHT22;6437;53.686;10.030;2022-10-16T11:40:23;19.30;99.90
12746;DHT22;6437;53.686;10.030;2022-10-16T11:43:27;19.30;99.90
12746;DHT22;6437;53.686;10.030;2022-10-16T11:46:30;19.10;99.90
12746;DHT22;6437;53.686;10.030;2022-10-16T11:49:32;19.00;99.90
12746;DHT22;6437;53.686;10.030;2022-10-16T11:52:36;18.90;99.90
12746;DHT22;6437;53.686;10.030;2022-10-16T11:55:42;18.90;99.90
12746;DHT22;6437;53.686;10.030;2022-10-16T11:58:46;18.80;99.90
12746;DHT22;6437;53.686;10.030;2022-10-16T12:01:51;18.80;99.90
12746;DHT22;6437;53.686;10.030;2022-10-16T12:04:56;18.90;99.90
12746;DHT22;6437;53.686;10.030;2022-10-16T12:08:04;19.20;99.90
12746;DHT22;6437;53.686;10.030;2022-10-16T12:11:09;20.00;99.90
12746;DHT22;6437;53.686;10.030;2022-10-16T12:17:36;22.50;99.90
12746;DHT22;6437;53.686;10.030;2022-10-16T12:20:38;23.10;99.90
12746;DHT22;6437;53.686;10.030;2022-10-16T12:23:46;23.30;99.90
12746;DHT22;6437;53.686;10.030;2022-10-16T12:26:50;23.20;99.90
12746;DHT22;6437;53.686;10.030;2022-10-16T12:29:54;22.90;99.90
12746;DHT22;6437;53.686;10.030;2022-10-16T12:32:56;22.50;99.90
12746;DHT22;6437;53.686;10.030;2022-10-16T12:35:59;22.10;99.90
12746;DHT22;6437;53.686;10.030;2022-10-16T12:39:01;21.60;99.90
12746;DHT22;6437;53.686;10.030;2022-10-16T12:42:17;21.20;99.90
12746;DHT22;6437;53.686;10.030;2022-10-16T12:45:24;20.90;99.90
12746;DHT22;6437;53.686;10.030;2022-10-16T12:48:26;20.50;99.90
12746;DHT22;6437;53.686;10.030;2022-10-16T12:51:33;20.20;99.90
12746;DHT22;6437;53.686;10.030;2022-10-16T12:54:36;19.90;99.90
12746;DHT22;6437;53.686;10.030;2022-10-16T12:57:42;19.60;99.90
12746;DHT22;6437;53.686;10.030;2022-10-16T13:00:45;19.30;99.90
12746;DHT22;6437;53.686;10.030;2022-10-16T13:03:59;19.00;99.90
12746;DHT22;6437;53.686;10.030;2022-10-16T13:07:11;18.80;99.90
12746;DHT22;6437;53.686;10.030;2022-10-16T13:10:19;18.40;99.90
12746;DHT22;6437;53.686;10.030;2022-10-16T13:13:29;18.40;99.90
12746;DHT22;6437;53.686;10.030;2022-10-16T13:16:36;18.30;99.90
12746;DHT22;6437;53.686;10.030;2022-10-16T13:19:42;18.20;99.90
12746;DHT22;6437;53.686;10.030;2022-10-16T13:22:47;18.00;99.90
12746;DHT22;6437;53.686;10.030;2022-10-16T13:25:55;18.10;99.90
12746;DHT22;6437;53.686;10.030;2022-10-16T13:29:01;18.00;99.90
12746;DHT22;6437;53.686;10.030;2022-10-16T13:32:06;18.00;99.90
12746;DHT22;6437;53.686;10.030;2022-10-16T13:35:18;17.90;99.90
12746;DHT22;6437;53.686;10.030;2022-10-16T13:38:21;17.90;99.90
12746;DHT22;6437;53.686;10.030;2022-10-16T13:41:22;17.90;99.90
12746;DHT22;6437;53.686;10.030;2022-10-16T13:44:25;17.90;99.90
12746;DHT22;6437;53.686;10.030;2022-10-16T13:47:28;17.90;99.90
12746;DHT22;6437;53.686;10.030;2022-10-16T13:50:30;17.80;99.90
12746;DHT22;6437;53.686;10.030;2022-10-16T13:53:32;17.80;99.90
12746;DHT22;6437;53.686;10.030;2022-10-16T13:56:34;17.70;99.90
12746;DHT22;6437;53.686;10.030;2022-10-16T13:59:37;17.60;99.90
12746;DHT22;6437;53.686;10.030;2022-10-16T14:02:39;17.60;99.90
12746;DHT22;6437;53.686;10.030;2022-10-16T14:05:42;17.60;99.90
12746;DHT22;6437;53.686;10.030;2022-10-16T14:08:48;17.50;99.90
12746;DHT22;6437;53.686;10.030;2022-10-16T14:11:51;17.50;99.90
12746;DHT22;6437;53.686;10.030;2022-10-16T14:14:55;17.50;99.90
12746;DHT22;6437;53.686;10.030;2022-10-16T14:17:59;17.50;99.90
12746;DHT22;6437;53.686;10.030;2022-10-16T14:21:04;17.40;99.90
12746;DHT22;6437;53.686;10.030;2022-10-16T14:24:22;17.40;99.90
12746;DHT22;6437;53.686;10.030;2022-10-16T14:27:28;17.40;99.90
12746;DHT22;6437;53.686;10.030;2022-10-16T14:30:31;17.40;99.90
12746;DHT22;6437;53.686;10.030;2022-10-16T14:33:33;17.40;99.90
12746;DHT22;6437;53.686;10.030;2022-10-16T14:36:35;17.40;99.90
12746;DHT22;6437;53.686;10.030;2022-10-16T14:39:36;17.40;99.90
12746;DHT22;6437;53.686;10.030;2022-10-16T14:42:38;17.40;99.90
12746;DHT22;6437;53.686;10.030;2022-10-16T14:45:49;17.40;99.90
12746;DHT22;6437;53.686;10.030;2022-10-16T14:48:53;17.40;99.90
12746;DHT22;6437;53.686;10.030;2022-10-16T14:51:55;17.40;99.90
12746;DHT22;6437;53.686;10.030;2022-10-16T14:54:56;17.40;99.90
12746;DHT22;6437;53.686;10.030;2022-10-16T14:57:58;17.40;99.90
12746;DHT22;6437;53.686;10.030;2022-10-16T15:01:01;17.40;99.90
12746;DHT22;6437;53.686;10.030;2022-10-16T15:04:03;17.40;99.90
12746;DHT22;6437;53.686;10.030;2022-10-16T15:07:04;17.40;99.90
12746;DHT22;6437;53.686;10.030;2022-10-16T15:10:06;17.40;99.90
12746;DHT22;6437;53.686;10.030;2022-10-16T15:13:09;17.30;99.90
12746;DHT22;6437;53.686;10.030;2022-10-16T15:16:14;17.30;99.90
12746;DHT22;6437;53.686;10.030;2022-10-16T15:19:16;17.30;99.90
12746;DHT22;6437;53.686;10.030;2022-10-16T15:22:18;17.20;99.90
12746;DHT22;6437;53.686;10.030;2022-10-16T15:25:26;17.10;99.90
12746;DHT22;6437;53.686;10.030;2022-10-16T15:28:28;17.10;99.90
12746;DHT22;6437;53.686;10.030;2022-10-16T15:31:31;17.10;99.90
12746;DHT22;6437;53.686;10.030;2022-10-16T15:34:33;17.10;99.90
12746;DHT22;6437;53.686;10.030;2022-10-16T15:37:34;17.00;99.90
12746;DHT22;6437;53.686;10.030;2022-10-16T15:40:36;17.00;99.90
12746;DHT22;6437;53.686;10.030;2022-10-16T15:43:38;16.90;99.90
12746;DHT22;6437;53.686;10.030;2022-10-16T15:46:40;16.90;99.90
12746;DHT22;6437;53.686;10.030;2022-10-16T15:49:42;16.80;99.90
12746;DHT22;6437;53.686;10.030;2022-10-16T15:52:44;16.80;99.90
12746;DHT22;6437;53.686;10.030;2022-10-16T15:55:45;16.80;99.90
12746;DHT22;6437;53.686;10.030;2022-10-16T15:58:47;16.80;99.90
12746;DHT22;6437;53.686;10.030;2022-10-16T16:01:50;16.80;99.90
12746;DHT22;6437;53.686;10.030;2022-10-16T16:04:51;16.70;99.90
12746;DHT22;6437;53.686;10.030;2022-10-16T16:07:53;16.60;99.90
12746;DHT22;6437;53.686;10.030;2022-10-16T16:10:58;16.50;99.90
12746;DHT22;6437;53.686;10.030;2022-10-16T16:14:00;16.40;99.90
12746;DHT22;6437;53.686;10.030;2022-10-16T16:17:02;16.40;99.90
12746;DHT22;6437;53.686;10.030;2022-10-16T16:20:04;16.30;99.90
12746;DHT22;6437;53.686;10.030;2022-10-16T16:23:06;16.30;99.90
12746;DHT22;6437;53.686;10.030;2022-10-16T16:26:09;16.20;99.90
12746;DHT22;6437;53.686;10.030;2022-10-16T16:29:12;16.20;99.90
12746;DHT22;6437;53.686;10.030;2022-10-16T16:32:15;16.10;99.90
12746;DHT22;6437;53.686;10.030;2022-10-16T16:35:17;16.10;99.90
12746;DHT22;6437;53.686;10.030;2022-10-16T16:38:19;16.00;99.90
12746;DHT22;6437;53.686;10.030;2022-10-16T16:41:21;16.00;99.90
12746;DHT22;6437;53.686;10.030;2022-10-16T16:44:23;15.90;99.90
12746;DHT22;6437;53.686;10.030;2022-10-16T16:47:26;15.80;99.90
12746;DHT22;6437;53.686;10.030;2022-10-16T16:50:27;15.80;99.90
12746;DHT22;6437;53.686;10.030;2022-10-16T16:53:29;15.80;99.90
12746;DHT22;6437;53.686;10.030;2022-10-16T16:56:30;15.70;99.90
12746;DHT22;6437;53.686;10.030;2022-10-16T16:59:32;15.60;99.90
12746;DHT22;6437;53.686;10.030;2022-10-16T17:02:35;15.60;99.90
12746;DHT22;6437;53.686;10.030;2022-10-16T17:05:37;15.60;99.90
12746;DHT22;6437;53.686;10.030;2022-10-16T17:08:38;15.60;99.90
12746;DHT22;6437;53.686;10.030;2022-10-16T17:11:40;15.60;99.90
12746;DHT22;6437;53.686;10.030;2022-10-16T17:14:43;15.50;99.90
12746;DHT22;6437;53.686;10.030;2022-10-16T17:17:46;15.40;99.90
12746;DHT22;6437;53.686;10.030;2022-10-16T17:20:47;15.40;99.90
12746;DHT22;6437;53.686;10.030;2022-10-16T17:23:50;15.40;99.90
12746;DHT22;6437;53.686;10.030;2022-10-16T17:26:52;15.30;99.90
12746;DHT22;6437;53.686;10.030;2022-10-16T17:29:54;15.30;99.90
12746;DHT22;6437;53.686;10.030;2022-10-16T17:32:57;15.30;99.90
12746;DHT22;6437;53.686;10.030;2022-10-16T17:35:58;15.20;99.90
12746;DHT22;6437;53.686;10.030;2022-10-16T17:39:00;15.20;99.90
12746;DHT22;6437;53.686;10.030;2022-10-16T17:42:03;15.20;99.90
12746;DHT22;6437;53.686;10.030;2022-10-16T17:45:05;15.10;99.90
12746;DHT22;6437;53.686;10.030;2022-10-16T17:48:08;15.10;99.90
12746;DHT22;6437;53.686;10.030;2022-10-16T17:51:11;15.00;99.90
12746;DHT22;6437;53.686;10.030;2022-10-16T17:54:13;15.00;99.90
12746;DHT22;6437;53.686;10.030;2022-10-16T17:57:14;14.90;99.90
12746;DHT22;6437;53.686;10.030;2022-10-16T18:00:16;14.90;99.90
12746;DHT22;6437;53.686;10.030;2022-10-16T18:03:19;14.80;99.90
12746;DHT22;6437;53.686;10.030;2022-10-16T18:06:21;14.80;99.90
12746;DHT22;6437;53.686;10.030;2022-10-16T18:09:22;14.80;99.90
12746;DHT22;6437;53.686;10.030;2022-10-16T18:12:24;14.60;99.90
12746;DHT22;6437;53.686;10.030;2022-10-16T18:15:26;14.70;99.90
12746;DHT22;6437;53.686;10.030;2022-10-16T18:18:29;14.60;99.90
12746;DHT22;6437;53.686;10.030;2022-10-16T18:21:30;14.60;99.90
12746;DHT22;6437;53.686;10.030;2022-10-16T18:24:32;14.60;99.90
12746;DHT22;6437;53.686;10.030;2022-10-16T18:27:33;14.60;99.90
12746;DHT22;6437;53.686;10.030;2022-10-16T18:30:35;14.50;99.90
12746;DHT22;6437;53.686;10.030;2022-10-16T18:33:38;14.50;99.90
12746;DHT22;6437;53.686;10.030;2022-10-16T18:36:41;14.40;99.90
12746;DHT22;6437;53.686;10.030;2022-10-16T18:39:44;14.40;99.90
12746;DHT22;6437;53.686;10.030;2022-10-16T18:42:46;14.40;99.90
12746;DHT22;6437;53.686;10.030;2022-10-16T18:45:55;14.40;99.90
12746;DHT22;6437;53.686;10.030;2022-10-16T18:48:58;14.30;99.90
12746;DHT22;6437;53.686;10.030;2022-10-16T18:52:01;14.30;99.90
12746;DHT22;6437;53.686;10.030;2022-10-16T18:55:02;14.30;99.90
12746;DHT22;6437;53.686;10.030;2022-10-16T18:58:04;14.30;99.90
12746;DHT22;6437;53.686;10.030;2022-10-16T19:01:06;14.20;99.90
12746;DHT22;6437;53.686;10.030;2022-10-16T19:04:10;14.20;99.90
12746;DHT22;6437;53.686;10.030;2022-10-16T19:07:13;14.10;99.90
12746;DHT22;6437;53.686;10.030;2022-10-16T19:10:15;14.10;99.90
12746;DHT22;6437;53.686;10.030;2022-10-16T19:13:17;14.10;99.90
12746;DHT22;6437;53.686;10.030;2022-10-16T19:16:19;14.00;99.90
12746;DHT22;6437;53.686;10.030;2022-10-16T19:19:22;14.00;99.90
12746;DHT22;6437;53.686;10.030;2022-10-16T19:22:25;13.90;99.90